Time;durP1;ratioP1;P1;durP2;ratioP2;P2;SDS_P1;SDS_P2;PMS_P1;PMS_P2;Temp;Humidity;BMP_temperature;BMP_pressure;BME280_temperature;BME280_humidity;BME280_pressure;Samples;Min_cycle;Max_cycle;Signal;HPM_P1;HPM_P2
2023/07/11 00:01:19;;;;;;;6.32;2.45;;;;;;;20.05;85.04;100729.09;8361050;28;20044;-63
2023/07/11 00:05:20;;;;;;;4.85;2.03;;;;;;;19.86;86.18;100727.88;8375599;28;20045;-64
2023/07/11 00:09:22;;;;;;;5.63;1.90;;;;;;;19.86;86.30;100724.28;8361918;28;20553;-64
2023/07/11 00:13:23;;;;;;;3.60;2.15;;;;;;;19.72;87.67;100720.53;8362335;28;20398;-64
2023/07/11 00:17:24;;;;;;;2.22;1.90;;;;;;;19.65;88.48;100730.59;8360784;28;20032;-64
2023/07/11 00:21:24;;;;;;;4.95;2.38;;;;;;;19.65;88.64;100729.75;8359844;28;20045;-64
2023/07/11 00:25:25;;;;;;;5.72;2.42;;;;;;;19.52;89.38;100720.31;8356532;28;20119;-64
2023/07/11 00:29:25;;;;;;;5.20;2.53;;;;;;;19.46;89.88;100723.81;8356372;28;20040;-64
2023/07/11 00:33:25;;;;;;;3.72;2.33;;;;;;;19.39;89.96;100708.31;8355809;28;20495;-64
2023/07/11 00:37:26;;;;;;;8.55;2.10;;;;;;;19.35;91.09;100707.88;8358740;28;20044;-64
2023/07/11 00:41:26;;;;;;;7.35;2.35;;;;;;;19.20;91.27;100717.13;8356462;28;20045;-64
2023/07/11 00:45:59;;;;;;;8.68;3.00;;;;;;;19.14;91.47;100707.78;8355760;28;20045;-64
2023/07/11 00:50:04;;;;;;;6.68;2.70;;;;;;;18.98;91.14;100699.78;8358976;28;20051;-64
2023/07/11 00:54:07;;;;;;;4.55;2.38;;;;;;;19.14;90.83;100707.78;8358803;28;20119;-63
2023/07/11 00:58:08;;;;;;;4.05;2.20;;;;;;;19.05;91.06;100705.34;8339078;28;20057;-64
2023/07/11 01:02:13;;;;;;;5.55;2.35;;;;;;;18.94;91.30;100698.44;8337823;28;20299;-64
2023/07/11 01:06:18;;;;;;;3.58;2.15;;;;;;;18.90;92.09;100710.81;8355944;28;20040;-64
2023/07/11 01:10:19;;;;;;;4.40;2.28;;;;;;;18.94;91.93;100703.09;8387173;28;20041;-64
2023/07/11 01:14:19;;;;;;;5.00;2.90;;;;;;;18.91;91.90;100698.81;8357965;28;20083;-64
2023/07/11 01:18:20;;;;;;;4.93;2.67;;;;;;;18.85;92.34;100690.53;8358275;28;20503;-64
2023/07/11 01:22:21;;;;;;;7.72;2.63;;;;;;;18.71;92.78;100686.75;8361669;28;20052;-64
2023/07/11 01:26:21;;;;;;;4.43;2.13;;;;;;;18.69;92.60;100677.84;8357466;28;20036;-64
2023/07/11 01:30:22;;;;;;;6.22;2.53;;;;;;;18.74;91.75;100678.16;8357326;28;20082;-64
2023/07/11 01:34:24;;;;;;;6.30;2.40;;;;;;;18.73;92.30;100675.59;8355579;28;20033;-64
2023/07/11 01:38:25;;;;;;;4.68;2.22;;;;;;;18.73;92.29;100667.38;8356506;28;20442;-64
2023/07/11 01:42:26;;;;;;;4.30;2.50;;;;;;;18.72;92.30;100672.00;8356717;28;20079;-64
2023/07/11 01:46:26;;;;;;;4.68;2.00;;;;;;;18.69;92.23;100664.16;8354755;28;20045;-64
2023/07/11 01:50:27;;;;;;;3.17;2.00;;;;;;;18.64;92.73;100655.69;8373465;28;20040;-64
2023/07/11 01:54:27;;;;;;;4.30;2.35;;;;;;;18.69;92.19;100655.09;8363819;28;20044;-64
2023/07/11 01:58:29;;;;;;;4.80;2.40;;;;;;;18.74;91.50;100653.50;8354787;28;20044;-64
2023/07/11 02:02:30;;;;;;;8.20;3.08;;;;;;;18.80;91.53;100658.22;8354390;28;20053;-64
2023/07/11 02:06:30;;;;;;;5.93;2.35;;;;;;;18.74;92.49;100648.03;8353322;28;20038;-64
2023/07/11 02:10:30;;;;;;;5.22;2.22;;;;;;;18.67;92.72;100658.00;8360313;28;20567;-64
2023/07/11 02:14:31;;;;;;;4.60;2.67;;;;;;;18.65;92.49;100649.16;8353785;28;20029;-64
2023/07/11 02:18:32;;;;;;;4.40;2.70;;;;;;;18.71;92.36;100642.91;8356219;28;20401;-64
2023/07/11 02:22:32;;;;;;;4.63;2.35;;;;;;;18.72;92.39;100644.59;8356774;28;20056;-64
2023/07/11 02:26:33;;;;;;;5.07;2.25;;;;;;;18.75;92.86;100644.22;8355185;28;20037;-64
2023/07/11 02:30:34;;;;;;;6.15;2.45;;;;;;;18.71;93.20;100637.44;8359355;28;20033;-64
2023/07/11 02:34:34;;;;;;;3.88;2.53;;;;;;;18.71;92.94;100642.91;8368773;28;20049;-60
2023/07/11 02:38:35;;;;;;;8.67;2.57;;;;;;;18.77;93.62;100639.41;8370886;28;20052;-60
2023/07/11 02:42:35;;;;;;;3.53;2.30;;;;;;;18.75;93.68;100633.28;8402299;28;20713;-60
2023/07/11 02:46:36;;;;;;;3.42;2.30;;;;;;;18.73;93.35;100624.38;8371431;28;20279;-59
2023/07/11 02:50:37;;;;;;;7.63;2.63;;;;;;;18.75;92.78;100611.34;8375798;28;20124;-63
2023/07/11 02:54:37;;;;;;;5.13;2.40;;;;;;;18.69;93.01;100617.59;8384403;28;20048;-64
2023/07/11 02:58:37;;;;;;;6.38;1.90;;;;;;;18.65;93.33;100612.69;8378043;28;20437;-64
2023/07/11 03:02:38;;;;;;;5.20;2.40;;;;;;;18.55;93.86;100614.88;8375217;28;20039;-64
2023/07/11 03:06:38;;;;;;;5.15;2.40;;;;;;;18.58;92.99;100615.34;8378984;28;20036;-63
2023/07/11 03:10:39;;;;;;;5.80;2.60;;;;;;;18.54;92.74;100608.53;8379208;28;20128;-63
2023/07/11 03:14:39;;;;;;;3.05;1.98;;;;;;;18.51;92.25;100606.19;8377340;28;20044;-65
2023/07/11 03:18:39;;;;;;;7.75;2.67;;;;;;;18.53;91.45;100611.47;8380435;28;20071;-64
2023/07/11 03:22:40;;;;;;;2.80;1.80;;;;;;;18.56;90.65;100602.88;8379230;28;20071;-64
2023/07/11 03:26:40;;;;;;;3.50;2.10;;;;;;;18.63;89.24;100601.09;8375251;28;20043;-64
2023/07/11 03:30:42;;;;;;;3.80;2.25;;;;;;;18.64;88.72;100598.16;8375539;28;20451;-63
2023/07/11 03:34:43;;;;;;;3.63;2.22;;;;;;;18.63;88.56;100604.66;8375346;28;20059;-64
2023/07/11 03:38:43;;;;;;;4.75;2.15;;;;;;;18.54;88.75;100594.84;8378652;28;20041;-64
2023/07/11 03:42:44;;;;;;;5.75;2.08;;;;;;;18.54;88.81;100592.09;8376833;28;20040;-64
2023/07/11 03:46:44;;;;;;;4.75;2.42;;;;;;;18.50;89.20;100590.78;8374412;28;20095;-63
2023/07/11 03:50:45;;;;;;;3.35;2.15;;;;;;;18.49;89.27;100589.09;8381217;28;20101;-64
2023/07/11 03:54:45;;;;;;;3.58;2.15;;;;;;;18.55;89.02;100591.09;8406538;28;20449;-63
2023/07/11 03:58:46;;;;;;;3.20;2.17;;;;;;;18.64;88.53;100589.09;8377352;28;20041;-63
2023/07/11 04:02:46;;;;;;;3.90;2.22;;;;;;;18.66;88.31;100587.84;8371917;28;20048;-63
2023/07/11 04:06:47;;;;;;;2.97;2.17;;;;;;;18.75;88.29;100588.59;8377312;28;20458;-63
2023/07/11 04:10:47;;;;;;;5.20;1.75;;;;;;;18.84;87.69;100580.06;8372487;28;20051;-64
2023/07/11 04:14:48;;;;;;;4.38;2.20;;;;;;;18.84;87.55;100584.69;8370900;28;20136;-64
2023/07/11 04:18:49;;;;;;;3.85;2.33;;;;;;;18.94;87.38;100588.00;8376203;28;20405;-64
2023/07/11 04:22:50;;;;;;;4.63;2.30;;;;;;;19.02;87.05;100575.03;8370748;28;20049;-64
2023/07/11 04:26:50;;;;;;;4.07;2.20;;;;;;;19.23;85.91;100572.31;8408534;28;20506;-64
2023/07/11 04:30:51;;;;;;;4.45;1.95;;;;;;;19.27;86.17;100573.66;8372262;28;20447;-64
2023/07/11 04:34:51;;;;;;;5.97;2.10;;;;;;;19.32;85.91;100571.19;8375470;28;20067;-64
2023/07/11 04:38:51;;;;;;;4.07;2.20;;;;;;;19.35;86.02;100559.81;8377902;28;20491;-64
2023/07/11 04:42:52;;;;;;;3.65;1.63;;;;;;;19.44;85.74;100566.00;8376308;28;20051;-64
2023/07/11 04:46:52;;;;;;;6.82;2.08;;;;;;;19.59;85.21;100557.69;8372916;28;20045;-64
2023/07/11 04:50:57;;;;;;;5.43;2.08;;;;;;;19.69;84.78;100561.81;8374879;28;20549;-63
2023/07/11 04:54:58;;;;;;;5.82;2.67;;;;;;;19.86;84.23;100556.88;8372705;28;20052;-63
2023/07/11 04:58:59;;;;;;;5.90;2.10;;;;;;;19.97;83.86;100553.59;8372682;28;20151;-64
2023/07/11 05:03:00;;;;;;;3.50;2.08;;;;;;;20.17;84.00;100557.34;8366426;28;20040;-64
2023/07/11 05:07:00;;;;;;;4.53;1.83;;;;;;;20.27;83.92;100549.56;8365572;28;20056;-64
2023/07/11 05:11:04;;;;;;;3.85;1.90;;;;;;;20.41;83.57;100546.72;8369242;28;20177;-64
2023/07/11 05:15:05;;;;;;;2.83;1.97;;;;;;;20.45;83.71;100547.16;8358820;28;20060;-64
2023/07/11 05:19:06;;;;;;;3.00;1.80;;;;;;;20.62;83.23;100543.03;8374456;28;20275;-63
2023/07/11 05:23:06;;;;;;;7.30;1.90;;;;;;;20.73;82.78;100545.16;8371505;28;20114;-64
2023/07/11 05:27:07;;;;;;;4.22;2.13;;;;;;;20.86;82.05;100534.25;8374182;28;20063;-65
2023/07/11 05:31:08;;;;;;;2.42;1.60;;;;;;;21.11;81.04;100527.97;8368370;28;20067;-64
2023/07/11 05:35:09;;;;;;;3.60;1.92;;;;;;;21.22;80.34;100532.03;8371950;28;20056;-64
2023/07/11 05:39:14;;;;;;;9.13;2.38;;;;;;;21.45;79.82;100518.72;8368614;28;20041;-63
2023/07/11 05:43:15;;;;;;;7.63;2.13;;;;;;;21.66;78.19;100520.44;8369240;28;20486;-64
2023/07/11 05:47:15;;;;;;;6.47;2.20;;;;;;;21.83;78.30;100516.22;8370894;28;20457;-64
2023/07/11 05:51:17;;;;;;;4.72;1.88;;;;;;;22.09;76.97;100513.41;8355870;28;20028;-64
2023/07/11 05:55:18;;;;;;;5.10;2.00;;;;;;;22.29;76.25;100516.97;8371343;28;20029;-65
2023/07/11 05:59:18;;;;;;;5.85;1.98;;;;;;;22.45;75.80;100511.81;8374326;28;20066;-64
2023/07/11 06:03:20;;;;;;;4.47;2.15;;;;;;;22.60;75.77;100509.66;8369909;28;20049;-65
2023/07/11 06:07:22;;;;;;;5.35;2.30;;;;;;;22.83;74.42;100493.47;8373241;28;20094;-64
2023/07/11 06:11:23;;;;;;;6.47;2.33;;;;;;;22.93;75.14;100499.34;8372116;28;20032;-64
2023/07/11 06:15:23;;;;;;;9.45;2.05;;;;;;;23.40;73.77;100488.88;8372330;28;20040;-64
2023/07/11 06:19:24;;;;;;;3.75;2.10;;;;;;;23.66;73.50;100483.97;8373022;28;20055;-64
2023/07/11 06:23:24;;;;;;;6.32;2.00;;;;;;;23.93;72.70;100484.56;8372588;28;20045;-64
2023/07/11 06:27:25;;;;;;;5.63;2.50;;;;;;;24.19;71.71;100473.28;8380319;28;20090;-64
2023/07/11 06:31:25;;;;;;;3.03;2.00;;;;;;;24.44;71.69;100476.78;8375198;28;20483;-64
2023/07/11 06:35:26;;;;;;;4.00;1.92;;;;;;;24.75;71.57;100473.88;8377260;28;20494;-65
2023/07/11 06:39:26;;;;;;;3.85;1.85;;;;;;;25.27;69.45;100478.63;8378853;28;20037;-65
2023/07/11 06:43:28;;;;;;;3.42;1.83;;;;;;;25.64;67.23;100469.09;8378761;28;20044;-65
2023/07/11 06:47:28;;;;;;;5.68;2.33;;;;;;;25.71;67.16;100458.72;8376976;28;20554;-65
2023/07/11 06:51:29;;;;;;;5.90;2.30;;;;;;;25.83;67.13;100454.03;8380011;28;20448;-65
2023/07/11 06:55:30;;;;;;;6.90;2.55;;;;;;;26.30;66.28;100455.72;8408870;28;20191;-65
2023/07/11 06:59:30;;;;;;;2.92;1.90;;;;;;;26.56;65.20;100452.38;8377787;28;20090;-65
2023/07/11 07:03:32;;;;;;;6.63;2.10;;;;;;;26.56;63.59;100452.38;8374723;28;20521;-65
2023/07/11 07:07:32;;;;;;;4.72;1.63;;;;;;;27.31;61.76;100438.31;8376963;28;20043;-64
2023/07/11 07:11:35;;;;;;;7.72;2.35;;;;;;;27.85;60.52;100443.13;8409594;28;20033;-64
2023/07/11 07:15:35;;;;;;;3.15;1.65;;;;;;;27.93;60.97;100445.50;8377262;28;20537;-64
2023/07/11 07:19:36;;;;;;;3.83;1.60;;;;;;;28.21;59.56;100442.56;8375917;28;20434;-65
2023/07/11 07:23:36;;;;;;;6.20;2.50;;;;;;;28.24;60.04;100447.63;8377832;28;20751;-64
2023/07/11 07:27:37;;;;;;;16.67;3.00;;;;;;;28.25;60.78;100436.22;8374334;28;20507;-65
2023/07/11 07:31:37;;;;;;;11.88;2.85;;;;;;;28.45;59.66;100425.38;8371726;28;20075;-64
2023/07/11 07:35:39;;;;;;;8.32;2.40;;;;;;;29.00;59.29;100427.94;8376745;28;20377;-64
2023/07/11 07:39:40;;;;;;;6.40;2.45;;;;;;;29.20;56.80;100413.41;8376056;28;20066;-64
2023/07/11 07:43:43;;;;;;;12.07;2.53;;;;;;;29.27;56.55;100433.56;8375617;28;20037;-64
2023/07/11 07:47:43;;;;;;;10.90;4.10;;;;;;;29.47;56.25;100417.84;8376630;28;20079;-65
2023/07/11 07:51:43;;;;;;;11.05;3.38;;;;;;;29.42;55.32;100412.22;8374980;28;20095;-65
2023/07/11 07:55:44;;;;;;;12.23;2.70;;;;;;;29.73;55.48;100416.16;8377529;28;20083;-65
2023/07/11 07:59:45;;;;;;;15.57;3.55;;;;;;;29.76;54.45;100407.25;8376177;28;20280;-64
2023/07/11 08:03:45;;;;;;;10.63;3.35;;;;;;;29.88;54.23;100403.13;8373397;28;20045;-64
2023/07/11 08:07:46;;;;;;;16.08;4.10;;;;;;;29.97;54.33;100395.94;8375120;28;20050;-64
2023/07/11 08:11:46;;;;;;;7.75;3.03;;;;;;;30.13;53.67;100405.22;8375124;28;20506;-65
2023/07/11 08:15:47;;;;;;;4.95;2.10;;;;;;;30.38;53.11;100405.38;8376306;28;20037;-64
2023/07/11 08:19:47;;;;;;;7.40;2.10;;;;;;;30.57;53.40;100394.53;8373686;28;20044;-65
2023/07/11 08:23:48;;;;;;;7.78;2.90;;;;;;;30.56;52.71;100398.47;8399089;28;20363;-64
2023/07/11 08:27:48;;;;;;;6.00;2.00;;;;;;;30.90;53.26;100405.28;8373309;28;20040;-64
2023/07/11 08:31:49;;;;;;;5.07;2.30;;;;;;;31.20;52.02;100385.78;8370866;28;20280;-65
2023/07/11 08:35:54;;;;;;;19.33;3.35;;;;;;;30.99;52.36;100384.06;8374368;28;20041;-64
2023/07/11 08:39:54;;;;;;;8.35;3.15;;;;;;;31.23;52.31;100388.00;8374168;28;20048;-64
2023/07/11 08:44:02;;;;;;;9.23;2.40;;;;;;;31.19;51.57;100375.72;8373687;28;20047;-65
2023/07/11 08:48:13;;;;;;;7.78;2.42;;;;;;;31.24;52.11;100373.75;8373705;28;20040;-65
2023/07/11 08:52:14;;;;;;;9.52;2.50;;;;;;;31.42;51.54;100370.44;8374747;28;20039;-64
2023/07/11 08:56:27;;;;;;;3.70;2.25;;;;;;;31.33;51.40;100354.50;8373656;28;20497;-64
2023/07/11 09:00:28;;;;;;;4.00;1.77;;;;;;;31.49;51.67;100364.53;8371268;28;20037;-64
2023/07/11 09:04:30;;;;;;;8.18;2.60;;;;;;;31.70;50.90;100349.41;8374759;28;20087;-65
2023/07/11 09:08:31;;;;;;;6.80;1.85;;;;;;;31.63;50.50;100348.88;8373222;28;20068;-65
2023/07/11 09:12:47;;;;;;;4.00;2.13;;;;;;;31.56;51.18;100345.56;8375130;28;20094;-65
2023/07/11 09:16:55;;;;;;;5.35;1.80;;;;;;;31.53;50.42;100338.53;8370432;28;20083;-65
2023/07/11 09:21:22;;;;;;;6.97;1.92;;;;;;;31.60;50.41;100330.72;8368576;28;20037;-65
2023/07/11 09:25:29;;;;;;;3.67;2.30;;;;;;;31.40;51.31;100332.69;8369700;28;20119;-66
2023/07/11 09:29:30;;;;;;;2.75;1.90;;;;;;;31.68;50.52;100323.72;8369284;28;20332;-64
2023/07/11 09:33:35;;;;;;;4.72;1.90;;;;;;;31.35;51.23;100313.97;8367371;28;20049;-65
2023/07/11 09:37:42;;;;;;;6.60;2.20;;;;;;;31.52;50.66;100314.50;8371777;28;20036;-64
2023/07/11 09:42:08;;;;;;;4.50;2.03;;;;;;;31.83;49.63;100301.31;8369453;28;20044;-64
2023/07/11 09:46:13;;;;;;;3.33;1.73;;;;;;;31.49;50.16;100297.44;8371417;28;20037;-66
2023/07/11 09:50:53;;;;;;;4.55;1.85;;;;;;;31.79;48.91;100302.97;8370258;28;20037;-66
2023/07/11 09:54:55;;;;;;;4.53;1.98;;;;;;;31.81;48.65;100300.75;8368920;28;20095;-66
2023/07/11 09:58:59;;;;;;;8.52;3.28;;;;;;;31.98;48.36;100296.50;8371475;28;20468;-64
2023/07/11 10:03:00;;;;;;;10.95;2.75;;;;;;;32.93;47.63;100297.94;8399422;28;20554;-63
2023/07/11 10:07:03;;;;;;;7.45;2.30;;;;;;;34.44;45.28;100296.31;8368932;28;20438;-64
2023/07/11 10:11:06;;;;;;;4.88;2.00;;;;;;;35.27;43.04;100297.22;8371335;28;20477;-63
2023/07/11 10:15:14;;;;;;;3.50;2.05;;;;;;;36.44;42.03;100283.38;8369475;28;20060;-63
2023/07/11 10:19:16;;;;;;;2.80;1.98;;;;;;;37.63;41.15;100273.03;8371365;28;20181;-63
2023/07/11 10:23:24;;;;;;;3.83;1.90;;;;;;;37.76;40.70;100276.94;8369277;28;20040;-63
2023/07/11 10:27:31;;;;;;;2.25;1.75;;;;;;;38.80;38.13;100278.53;8371234;28;20044;-64
2023/07/11 10:31:35;;;;;;;6.13;1.85;;;;;;;38.08;38.86;100276.56;8366481;28;20036;-63
2023/07/11 10:35:37;;;;;;;3.40;1.73;;;;;;;38.27;39.02;100268.66;8368337;28;20076;-63
2023/07/11 10:39:47;;;;;;;4.38;2.38;;;;;;;38.71;37.92;100268.38;8371352;28;20040;-63
2023/07/11 10:43:51;;;;;;;6.43;2.08;;;;;;;38.43;37.81;100250.88;8368195;28;20046;-64
2023/07/11 10:48:21;;;;;;;4.78;2.20;;;;;;;38.62;37.75;100248.59;8367993;28;20036;-64
2023/07/11 10:52:25;;;;;;;7.57;2.33;;;;;;;37.85;39.00;100255.19;8371306;28;20059;-64
2023/07/11 10:56:30;;;;;;;5.57;2.60;;;;;;;38.89;37.98;100247.41;8367678;28;20082;-64
2023/07/11 11:00:48;;;;;;;4.25;2.00;;;;;;;40.23;35.91;100237.97;8363982;28;20390;-64
2023/07/11 11:05:28;;;;;;;6.40;2.40;;;;;;;39.08;37.30;100233.75;8368447;28;20041;-64
2023/07/11 11:09:43;;;;;;;4.13;2.45;;;;;;;39.67;36.62;100229.91;8371461;28;20123;-67
2023/07/11 11:14:05;;;;;;;4.55;2.08;;;;;;;40.88;35.80;100213.81;8373599;28;20106;-64
2023/07/11 11:18:23;;;;;;;6.07;2.28;;;;;;;40.34;36.19;100208.06;8373626;28;20056;-64
2023/07/11 11:27:01;;;;;;;6.63;2.50;;;;;;;39.58;36.84;100197.16;8391554;27;20402;-66
2023/07/11 11:31:24;;;;;;;3.92;1.90;;;;;;;40.27;36.19;100189.94;8379414;27;20096;-66
2023/07/11 11:35:36;;;;;;;2.97;2.15;;;;;;;41.11;35.08;100172.50;8381149;27;20055;-66
2023/07/11 11:39:48;;;;;;;3.20;2.25;;;;;;;40.13;35.71;100173.22;8371032;27;20030;-66
2023/07/11 11:43:51;;;;;;;4.97;1.83;;;;;;;40.63;35.57;100162.63;8382067;28;20041;-66
2023/07/11 11:47:54;;;;;;;10.03;2.30;;;;;;;39.08;36.06;100157.38;8381634;27;20073;-66
2023/07/11 11:51:56;;;;;;;8.38;2.47;;;;;;;40.65;35.22;100165.09;8380997;28;20055;-66
2023/07/11 11:56:00;;;;;;;5.43;2.05;;;;;;;40.19;35.89;100154.00;8380387;27;20086;-65
2023/07/11 12:00:02;;;;;;;4.60;1.92;;;;;;;38.80;36.92;100151.28;8380665;27;20481;-65
2023/07/11 12:04:33;;;;;;;5.80;2.30;;;;;;;39.68;36.52;100143.81;8330197;27;20971;-65
2023/07/11 12:08:36;;;;;;;3.38;2.25;;;;;;;40.80;35.27;100136.94;8328344;28;20514;-65
2023/07/11 12:12:42;;;;;;;3.90;2.08;;;;;;;40.50;35.50;100137.41;8332710;28;20045;-64
2023/07/11 12:16:47;;;;;;;4.78;2.13;;;;;;;37.91;37.62;100129.66;8330984;28;20111;-60
2023/07/11 12:25:28;;;;;;;5.20;2.28;;;;;;;34.46;42.01;100117.13;8388042;27;20497;-60
2023/07/11 12:29:35;;;;;;;;;;;;;;;34.12;43.08;100097.69;8379213;27;20096;-61
2023/07/11 12:33:37;;;;;;;3.03;2.53;;;;;;;34.72;42.22;100107.91;8377091;27;19916;-62
2023/07/11 12:42:28;;;;;;;4.40;2.35;;;;;;;33.93;42.34;100089.31;8409048;27;20732;-61
2023/07/11 12:46:37;;;;;;;4.75;3.10;;;;;;;34.40;43.23;100081.84;8398979;27;20479;-61
2023/07/11 12:50:51;;;;;;;4.95;2.53;;;;;;;34.34;43.55;100071.78;8395281;27;20032;-61
2023/07/11 12:54:52;;;;;;;6.03;2.65;;;;;;;34.39;43.31;100071.75;8392568;27;20509;-61
2023/07/11 12:58:52;;;;;;;3.15;2.75;;;;;;;34.18;42.96;100067.59;8393565;27;20379;-60
2023/07/11 13:02:55;;;;;;;5.07;2.60;;;;;;;34.42;42.98;100062.72;8392571;27;20032;-60
2023/07/11 13:06:57;;;;;;;5.50;2.63;;;;;;;34.54;42.14;100061.06;8394067;27;20106;-60
2023/07/11 13:11:00;;;;;;;4.55;2.92;;;;;;;34.71;41.62;100038.00;8391288;27;20047;-60
2023/07/11 13:15:12;;;;;;;5.47;2.42;;;;;;;34.67;42.65;100042.56;8397962;27;20040;-60
2023/07/11 13:19:15;;;;;;;6.05;2.88;;;;;;;34.49;41.95;100029.44;8388606;27;20037;-61
2023/07/11 13:23:15;;;;;;;6.67;2.97;;;;;;;34.18;42.67;100017.06;8390095;27;20040;-60
2023/07/11 13:27:26;;;;;;;4.63;3.28;;;;;;;34.60;41.39;100019.66;8397479;27;20271;-61
2023/07/11 13:31:30;;;;;;;4.45;3.20;;;;;;;34.24;43.14;100013.03;8395113;27;20041;-60
2023/07/11 13:35:32;;;;;;;5.40;3.25;;;;;;;34.92;41.63;100014.00;8418033;27;20036;-61
2023/07/11 13:39:43;;;;;;;9.23;3.08;;;;;;;34.92;40.98;100011.19;8396453;27;20610;-60
2023/07/11 13:43:45;;;;;;;3.92;2.65;;;;;;;34.70;42.62;100008.25;8394023;27;20490;-61
2023/07/11 13:47:47;;;;;;;4.65;2.47;;;;;;;34.92;41.60;100005.56;8399022;27;20040;-61
2023/07/11 13:51:55;;;;;;;9.18;3.17;;;;;;;34.62;40.69;99994.91;8380485;27;20037;-61
2023/07/11 13:55:55;;;;;;;7.35;3.00;;;;;;;34.34;41.45;99981.94;8373545;28;20100;-61
2023/07/11 13:59:56;;;;;;;8.85;3.22;;;;;;;34.63;41.10;99985.31;8373709;28;20075;-61
2023/07/11 14:03:56;;;;;;;4.00;2.20;;;;;;;34.61;41.45;99991.25;8351750;28;20041;-61
2023/07/11 14:08:00;;;;;;;3.50;2.43;;;;;;;34.70;40.78;99991.38;8369917;28;20291;-61
2023/07/11 14:12:01;;;;;;;9.15;2.70;;;;;;;34.71;40.68;99981.81;8373931;28;20119;-61
2023/07/11 14:16:01;;;;;;;3.20;2.17;;;;;;;34.96;40.61;99970.06;8369303;28;20087;-61
2023/07/11 14:20:02;;;;;;;6.43;2.47;;;;;;;34.90;41.20;99979.75;8373315;28;20036;-61
2023/07/11 14:24:10;;;;;;;4.68;2.65;;;;;;;34.93;40.32;99979.09;8369765;28;20283;-60
2023/07/11 14:28:13;;;;;;;3.50;2.45;;;;;;;34.68;39.82;99979.63;8368662;28;20174;-61
2023/07/11 14:32:17;;;;;;;7.03;2.35;;;;;;;34.78;40.83;99959.72;8366351;28;20128;-60
2023/07/11 14:36:18;;;;;;;3.55;1.92;;;;;;;34.85;41.21;99971.41;8373280;28;20431;-60
2023/07/11 14:40:22;;;;;;;3.47;2.17;;;;;;;34.88;40.55;99965.19;8368581;28;20349;-60
2023/07/11 14:44:28;;;;;;;4.43;2.08;;;;;;;34.70;40.37;99949.25;8370460;28;20136;-61
2023/07/11 14:48:29;;;;;;;4.20;2.53;;;;;;;34.82;40.55;99966.41;8371689;28;20538;-61
2023/07/11 14:52:31;;;;;;;3.70;2.80;;;;;;;34.79;41.01;99955.78;8360466;28;20040;-61
2023/07/11 14:56:31;;;;;;;5.95;3.03;;;;;;;34.65;40.79;99943.72;8355026;28;20087;-61
2023/07/11 15:00:32;;;;;;;3.75;2.70;;;;;;;34.59;40.68;99942.16;8358797;28;20044;-60
2023/07/11 15:04:34;;;;;;;4.07;2.87;;;;;;;34.54;40.90;99937.47;8352548;28;20086;-61
2023/07/11 15:08:34;;;;;;;5.50;2.75;;;;;;;34.68;40.70;99932.69;8369278;28;20785;-62
2023/07/11 15:12:36;;;;;;;3.28;2.22;;;;;;;34.79;40.94;99930.50;8374535;28;20480;-62
2023/07/11 15:16:36;;;;;;;4.50;2.50;;;;;;;34.89;40.79;99927.50;8366224;28;20499;-62
2023/07/11 15:20:37;;;;;;;3.23;2.57;;;;;;;34.92;40.95;99932.50;8371385;28;20423;-62
2023/07/11 15:24:40;;;;;;;4.20;2.63;;;;;;;34.76;41.31;99928.31;8370900;28;20040;-61
2023/07/11 15:28:40;;;;;;;;;;;;;;;34.69;41.58;99923.13;8366036;28;20811;-62
2023/07/11 15:32:43;;;;;;;4.10;2.63;;;;;;;34.61;41.91;99909.78;8372233;28;20259;-61
2023/07/11 15:36:43;;;;;;;3.95;2.67;;;;;;;34.53;42.37;99904.09;8370041;28;20060;-61
2023/07/11 15:40:44;;;;;;;3.92;2.63;;;;;;;34.68;41.57;99898.16;8369249;28;20045;-61
2023/07/11 15:44:51;;;;;;;3.92;2.60;;;;;;;34.63;41.49;99901.06;8367974;28;20503;-61
2023/07/11 15:48:56;;;;;;;3.45;3.10;;;;;;;34.67;40.96;99885.25;8371540;28;20029;-61
2023/07/11 15:52:56;;;;;;;3.58;2.78;;;;;;;34.51;41.78;99898.78;8351872;28;20043;-61
2023/07/11 15:56:57;;;;;;;5.10;3.25;;;;;;;34.55;42.26;99893.38;8361727;28;20048;-61
2023/07/11 16:00:57;;;;;;;4.03;2.47;;;;;;;34.36;42.02;99889.81;8368681;28;20407;-61
2023/07/11 16:04:58;;;;;;;4.10;3.22;;;;;;;34.42;41.79;99888.59;8375199;28;20040;-61
2023/07/11 16:08:58;;;;;;;6.63;3.00;;;;;;;34.47;41.64;99875.28;8361007;28;20060;-61
2023/07/11 16:13:00;;;;;;;7.40;3.83;;;;;;;34.49;41.87;99860.94;8360776;28;20040;-61
2023/07/11 16:17:01;;;;;;;7.47;3.67;;;;;;;34.41;41.98;99858.84;8367948;28;20302;-61
2023/07/11 16:21:01;;;;;;;3.67;2.97;;;;;;;34.38;42.61;99853.84;8364069;28;20519;-61
2023/07/11 16:25:08;;;;;;;4.32;2.97;;;;;;;34.56;41.90;99852.91;8370836;28;20566;-61
2023/07/11 16:29:11;;;;;;;4.60;2.80;;;;;;;34.55;42.00;99837.22;8371014;28;20469;-61
2023/07/11 16:33:19;;;;;;;4.53;3.17;;;;;;;34.38;42.11;99832.22;8351282;28;20033;-61
2023/07/11 16:37:19;;;;;;;5.85;3.08;;;;;;;34.32;43.05;99832.59;8365870;28;20109;-61
2023/07/11 16:41:20;;;;;;;5.03;2.83;;;;;;;34.13;43.45;99837.50;8367843;28;20040;-60
2023/07/11 16:45:32;;;;;;;3.63;2.97;;;;;;;34.19;43.79;99833.44;8362870;28;20041;-61
2023/07/11 16:49:33;;;;;;;7.05;3.70;;;;;;;34.08;43.95;99832.81;8368047;28;20029;-61
2023/07/11 16:53:33;;;;;;;3.92;3.00;;;;;;;34.08;44.82;99838.44;8367424;28;20051;-61
2023/07/11 16:57:34;;;;;;;6.53;3.75;;;;;;;33.96;45.89;99828.88;8353569;28;20064;-61
2023/07/11 17:01:34;;;;;;;6.28;3.38;;;;;;;33.97;44.31;99826.59;8365255;28;20259;-62
2023/07/11 17:05:35;;;;;;;6.30;3.22;;;;;;;33.92;44.50;99823.91;8365743;28;20514;-62
2023/07/11 17:09:36;;;;;;;6.57;3.60;;;;;;;33.64;45.06;99827.75;8363232;28;20040;-61
2023/07/11 17:13:36;;;;;;;4.53;3.20;;;;;;;33.56;45.47;99817.25;8370846;28;20056;-62
2023/07/11 17:17:37;;;;;;;4.88;3.42;;;;;;;33.50;45.94;99820.44;8367380;28;20150;-61
2023/07/11 17:21:38;;;;;;;4.15;3.00;;;;;;;33.44;46.46;99819.72;8358697;28;20037;-62
2023/07/11 17:25:39;;;;;;;4.53;3.10;;;;;;;33.41;45.67;99806.31;8367713;28;20082;-61
2023/07/11 17:29:40;;;;;;;4.40;3.58;;;;;;;33.27;45.46;99807.38;8374224;28;20033;-61
2023/07/11 17:33:40;;;;;;;10.65;4.15;;;;;;;33.18;46.38;99784.00;8366725;28;20502;-61
2023/07/11 17:37:43;;;;;;;14.02;3.70;;;;;;;33.20;46.98;99762.91;8363556;28;20124;-61
2023/07/11 17:42:14;;;;;;;10.57;3.33;;;;;;;33.34;46.91;99765.75;8373789;28;20606;-61
2023/07/11 17:46:14;;;;;;;4.82;2.83;;;;;;;33.40;46.97;99742.97;8369634;28;20095;-61
2023/07/11 17:50:23;;;;;;;8.45;3.58;;;;;;;33.34;46.36;99735.78;8378241;28;20032;-61
2023/07/11 17:54:23;;;;;;;5.35;3.25;;;;;;;33.26;45.68;99714.03;8367110;28;20045;-61
2023/07/11 17:58:27;;;;;;;4.23;2.60;;;;;;;33.20;46.45;99715.28;8373631;28;20206;-61
2023/07/11 18:02:29;;;;;;;4.70;3.00;;;;;;;33.04;47.28;99710.25;8371848;28;20271;-61
2023/07/11 18:06:30;;;;;;;8.00;3.00;;;;;;;32.83;47.80;99715.34;8369912;28;20033;-61
2023/07/11 18:10:30;;;;;;;8.05;3.05;;;;;;;32.83;47.42;99712.53;8372989;28;20045;-61
2023/07/11 18:14:31;;;;;;;3.92;2.85;;;;;;;32.86;47.30;99709.16;8369254;28;20041;-60
2023/07/11 18:18:31;;;;;;;5.67;3.27;;;;;;;32.84;47.08;99705.78;8373188;28;20044;-61
2023/07/11 18:22:32;;;;;;;6.20;3.00;;;;;;;32.72;48.15;99699.84;8373439;28;20280;-61
2023/07/11 18:26:32;;;;;;;5.35;2.63;;;;;;;32.58;49.10;99698.97;8376348;28;20324;-60
2023/07/11 18:30:32;;;;;;;6.60;3.00;;;;;;;32.48;48.69;99685.13;8361270;28;20033;-60
2023/07/11 18:34:34;;;;;;;6.95;3.15;;;;;;;32.42;49.11;99682.72;8372052;28;20693;-62
2023/07/11 18:38:34;;;;;;;3.78;2.58;;;;;;;32.33;49.18;99673.31;8367880;28;20044;-62
2023/07/11 18:42:35;;;;;;;3.67;2.65;;;;;;;32.09;52.72;99670.59;8372627;28;20205;-62
2023/07/11 18:46:35;;;;;;;5.97;2.97;;;;;;;31.92;53.54;99661.88;8369241;28;20566;-61
2023/07/11 18:50:36;;;;;;;5.03;2.70;;;;;;;31.61;55.45;99657.78;8369439;28;20094;-62
2023/07/11 18:54:36;;;;;;;11.38;3.30;;;;;;;31.44;56.35;99644.28;8354264;28;20446;-61
2023/07/11 18:58:37;;;;;;;6.93;2.55;;;;;;;31.19;57.04;99649.31;8371104;28;20513;-60
2023/07/11 19:02:37;;;;;;;4.07;2.72;;;;;;;30.78;58.45;99659.22;8371181;28;20124;-61
2023/07/11 19:06:38;;;;;;;6.20;3.22;;;;;;;30.90;57.80;99656.88;8369740;28;20044;-61